Flight Track Log - Related Links

Times and Time Zones

All times are in EDT time to prevent confusion due to time zone crossing. See the RPA3288 flight status page for this flight to view local times or setup timezone preferences in your user account.

Time Position Orientation Groundspeed Altitude Reporting Facility
EDT Latitude Longitude Course Direction KTS MPH feet Rate Location/Type
Tue 12:15:57 PM 28.0000 -82.5500 North 153 176 600  Level Tampa TRACON
Tue 12:17:03 PM 28.0500 -82.5500 360° North 203 234 2,300 2,337 Climbing Tampa TRACON
Tue 12:18:00 PM 28.2893 -82.5667 North  Level FlightAware Approximate
Tue 12:19:00 PM 28.3998 -82.5683 355° North  Level FlightAware Approximate
Tue 12:19:25 PM 28.2181 -82.5553 358° North 272 313 8,700  Level Miami Center
Tue 12:20:00 PM 28.5099 -82.5793 355° North  Level FlightAware Approximate
Tue 12:20:21 PM 28.2997 -82.5625 356° North 282 325 10,800  Level Jacksonville Center
Tue 12:21:00 PM 28.6203 -82.5833 North  Level FlightAware Approximate
Tue 12:21:21 PM 28.3936 -82.5692 356° North 308 354 13,100  Level Jacksonville Center
Tue 12:22:21 PM 28.4875 -82.5761 356° North 326 375 15,400 2,200 Climbing Jacksonville Center
Tue 12:23:21 PM 28.5900 -82.5828 357° North 343 395 17,500 1,750 Climbing Jacksonville Center
Tue 12:24:21 PM 28.6692 -82.5919 354° North 350 403 18,900 1,700 Climbing Jacksonville Center
Tue 12:25:21 PM 28.7819 -82.6036 355° North 360 414 20,900 1,800 Climbing Jacksonville Center
Tue 12:26:21 PM 28.8883 -82.6200 352° North 371 427 22,500 1,650 Climbing Jacksonville Center
Tue 12:27:21 PM 28.9992 -82.6339 354° North 384 442 24,200 1,500 Climbing Jacksonville Center
Tue 12:28:21 PM 29.1097 -82.6503 353° North 389 448 25,500 1,250 Climbing Jacksonville Center
Tue 12:29:21 PM 29.2267 -82.6667 353° North 403 464 26,700 1,250 Climbing Jacksonville Center
Tue 12:30:21 PM 29.3436 -82.6831 353° North 415 478 28,000 1,250 Climbing Jacksonville Center
Tue 12:31:21 PM 29.4606 -82.6922 356° North 420 483 29,200 1,150 Climbing Jacksonville Center
Tue 12:32:21 PM 29.5919 -82.6681 North 430 495 30,300 1,050 Climbing Jacksonville Center
Tue 12:33:21 PM 29.6964 -82.6367 15° North 425 489 31,300 1,100 Climbing Jacksonville Center
Tue 12:34:21 PM 29.8236 -82.5981 15° North 425 489 32,500 1,050 Climbing Jacksonville Center
Tue 12:35:21 PM 29.9383 -82.5667 13° North 425 489 33,400 900 Climbing Jacksonville Center
Tue 12:36:21 PM 30.0531 -82.5375 12° North 425 489 34,300 73 Climbing Jacksonville Center
Tue 12:57:21 PM 32.5825 -81.6794 23° Northeast 452 520 35,000 32 Climbing Jacksonville Center
Tue 12:58:00 PM 32.2296 -81.8302 21° North  Level FlightAware Approximate
Tue 12:58:21 PM 32.6883 -81.6289 22° Northeast 447 514 35,000  Level Jacksonville Center
Tue 12:59:00 PM 32.3298 -81.7844 21° North  Level FlightAware Approximate
Tue 12:59:21 PM 32.8047 -81.5606 26° Northeast 452 520 35,000  Level Jacksonville Center
Tue 01:00:00 PM 32.4300 -81.7385 21° North  Level FlightAware Approximate
Tue 01:00:21 PM 32.9186 -81.4747 32° Northeast 447 514 35,000  Level Jacksonville Center
Tue 01:01:00 PM 32.5301 -81.6925 21° North  Level FlightAware Approximate
Tue 01:01:21 PM 33.0239 -81.3861 35° Northeast 447 514 35,000  Level Jacksonville Center
Tue 01:02:00 PM 32.6293 -81.6438 23° Northeast  Level FlightAware Approximate
Tue 01:02:21 PM 33.1272 -81.3028 34° Northeast 452 520 35,000  Level Jacksonville Center
Tue 01:03:21 PM 33.2325 -81.2164 34° Northeast 452 520 35,000  Level Jacksonville Center
Tue 01:04:21 PM 33.3358 -81.1347 33° Northeast 452 520 35,000  Level Jacksonville Center
Tue 01:05:21 PM 33.4369 -81.0533 34° Northeast 452 520 35,000  Level Jacksonville Center
Tue 01:06:21 PM 33.5419 -80.9664 35° Northeast 452 520 35,000  Level Jacksonville Center
Tue 01:07:21 PM 33.6450 -80.8817 34° Northeast 452 520 35,000  Level Jacksonville Center
Tue 01:08:21 PM 33.7500 -80.7944 35° Northeast 452 520 35,000  Level Jacksonville Center
Tue 01:09:21 PM 33.8531 -80.7119 34° Northeast 452 520 35,000  Level Jacksonville Center
Tue 01:10:21 PM 33.9558 -80.6242 35° Northeast 447 514 35,000  Level Jacksonville Center
Tue 01:11:21 PM 34.0586 -80.5389 34° Northeast 447 514 35,000  Level Jacksonville Center
Tue 01:13:33 PM 34.2753 -80.3542 35° Northeast 467 537 35,000  Level Washington Center
Tue 01:14:33 PM 34.3786 -80.2697 34° Northeast 454 522 35,000  Level Washington Center
Tue 01:15:31 PM 34.4778 -80.1847 35° Northeast 456 525 35,000  Level Washington Center
Tue 01:16:31 PM 34.5794 -80.0969 35° Northeast 450 518 35,000  Level Washington Center
Tue 01:17:32 PM 34.6614 -80.0258 36° Northeast 450 518 35,000  Level Washington Center
Tue 01:18:33 PM 34.7733 -79.9308 35° Northeast 450 518 35,000  Level Washington Center
Tue 01:19:31 PM 34.8744 -79.8450 35° Northeast 445 512 35,000  Level Washington Center
Tue 01:20:32 PM 34.9756 -79.7592 35° Northeast 445 512 35,000  Level Washington Center
Tue 01:21:33 PM 35.0744 -79.6753 35° Northeast 435 501 35,000  Level Washington Center
Tue 01:22:33 PM 35.1711 -79.5889 36° Northeast 435 501 35,000  Level Washington Center
Tue 01:23:32 PM 35.2600 -79.4914 42° Northeast 428 493 35,000  Level Washington Center
Tue 01:24:32 PM 35.3594 -79.3867 41° Northeast 421 484 35,000  Level Washington Center
Tue 01:25:33 PM 35.4561 -79.2944 38° Northeast 432 497 35,000  Level Washington Center
Tue 01:26:33 PM 35.5550 -79.2047 36° Northeast 433 498 35,000  Level Washington Center
Tue 01:27:32 PM 35.6364 -79.1267 38° Northeast 427 491 35,000  Level Washington Center
Tue 01:28:32 PM 35.7331 -79.0361 37° Northeast 427 491 35,000  Level Washington Center
Tue 01:29:33 PM 35.8294 -78.9481 37° Northeast 427 491 35,000  Level Washington Center
Tue 01:30:33 PM 35.9258 -78.8572 37° Northeast 427 491 35,000  Level Washington Center
Tue 01:31:32 PM 36.0286 -78.7589 38° Northeast 427 491 35,000 -1,008 Level Washington Center
Tue 01:32:32 PM 36.1250 -78.6650 38° Northeast 427 491 33,000 -2,150 Descending Washington Center
Tue 01:33:32 PM 36.2233 -78.5736 37° Northeast 427 491 30,700 -2,331 Descending Washington Center
Tue 01:34:33 PM 36.3194 -78.4819 38° Northeast 427 491 28,300 -1,866 Descending Washington Center
Tue 01:35:31 PM 36.4197 -78.3847 38° Northeast 433 498 27,000 -655 Descending Washington Center
Tue 01:36:32 PM 36.5181 -78.2903 38° Northeast 438 504 27,000 -295 Level Washington Center
Tue 01:37:33 PM 36.6161 -78.1953 38° Northeast 438 504 26,400 -992 Descending Washington Center
Tue 01:38:33 PM 36.7119 -78.1000 39° Northeast 443 510 25,000 -706 Descending Washington Center
Tue 01:39:32 PM 36.8078 -78.0044 39° Northeast 443 510 25,000  Level Washington Center
Tue 01:40:32 PM 36.9178 -77.9325 28° Northeast 443 510 25,000  Level Washington Center
Tue 01:41:33 PM 37.0294 -77.8736 23° Northeast 435 501 25,000  Level Washington Center
Tue 01:42:33 PM 37.1411 -77.8092 25° Northeast 435 501 25,000 -661 Level Washington Center
Tue 01:43:31 PM 37.2508 -77.7497 23° Northeast 430 495 23,700 -1,500 Descending Washington Center
Tue 01:44:33 PM 37.3581 -77.6900 24° Northeast 420 483 22,000 -850 Descending Washington Center
Tue 01:45:31 PM 37.4636 -77.6300 24° Northeast 420 483 22,000  Level Washington Center
Tue 01:46:31 PM 37.5708 -77.5675 25° Northeast 420 483 22,000  Level Washington Center
Tue 01:47:32 PM 37.6783 -77.5072 24° Northeast 420 483 22,000 -689 Level Washington Center
Tue 01:48:33 PM 37.7856 -77.4469 24° Northeast 420 483 20,600 -1,736 Descending Washington Center
Tue 01:49:33 PM 37.8886 -77.3889 24° Northeast 415 478 18,500 -2,085 Descending Washington Center
Tue 01:50:31 PM 37.9875 -77.3306 25° Northeast 402 463 16,500 -2,050 Descending Washington Center
Tue 01:51:33 PM 38.0822 -77.2800 23° Northeast 384 442 14,400 -2,016 Descending Washington Center
Tue 01:52:33 PM 38.1725 -77.2267 25° Northeast 367 422 12,400 -1,881 Descending Washington Center
Tue 01:53:31 PM 38.2586 -77.1808 23° Northeast 347 399 10,700 -1,210 Descending Washington Center
Tue 01:54:32 PM 38.3303 -77.1322 28° Northeast 316 364 10,000 -1,289 Descending Washington Center
Tue 01:55:32 PM 38.3956 -77.0778 33° Northeast 290 334 8,100 -1,736 Descending Washington Center
Tue 01:56:33 PM 38.4628 -77.0289 30° Northeast 276 318 6,500 -1,339 Descending Washington Center
Tue 01:57:33 PM 38.5172 -77.0061 18° North 238 274 5,400 -814 Descending Washington Center
Tue 01:58:31 PM 38.5736 -77.0122 355° North 204 235 4,900 -655 Descending Washington Center
Tue 01:59:32 PM 38.6214 -77.0186 354° North 191 220 4,100 -881 Descending Washington Center
Tue 02:00:54 PM 38.6833 -77.0167 North 178 205 2,800 -972 Descending Potomac TRACON
Tue 02:01:54 PM 38.7500 -77.0333 349° North 182 209 1,800 -950 Descending Potomac TRACON
Tue 02:02:54 PM 38.7833 -77.0333 360° North 162 186 900 -800 Descending Potomac TRACON
Tue 02:03:54 PM 38.8333 -77.0333 360° North 137 158 200 -700 Descending Potomac TRACON
Tue 02:05:00 PM 38.8500 -77.0333 North  Level FlightAware Approximate
Tue 02:12:00 PM 38.8519 -77.0377 North  Level Estimated
Tue 02:13:00 PM 38.8500 -77.0333 North  Level FlightAware Approximate

Login

Don't have an account? Register now (free) for customized features, flight alerts, and more!